Time;durP1;ratioP1;P1;durP2;ratioP2;P2;SDS_P1;SDS_P2;PMS_P1;PMS_P2;Temp;Humidity;BMP_temperature;BMP_pressure;BME280_temperature;BME280_humidity;BME280_pressure;Samples;Min_cycle;Max_cycle;Signal;HPM_P1;HPM_P2
2022/01/03 00:00:28;;;;;;;21.30;3.13;;;;;;;9.92;79.89;100888.91;5093000;28;20044;-65
2022/01/03 00:03:00;;;;;;;18.08;2.88;;;;;;;9.95;79.15;100894.75;5076108;28;20118;-65
2022/01/03 00:05:27;;;;;;;21.75;3.15;;;;;;;9.95;79.35;100908.00;5075556;28;20138;-65
2022/01/03 00:07:54;;;;;;;19.85;3.10;;;;;;;10.02;78.57;100892.31;5077059;28;20048;-65
2022/01/03 00:10:21;;;;;;;16.63;2.60;;;;;;;10.03;78.52;100893.19;5076450;28;20408;-64
2022/01/03 00:12:49;;;;;;;23.73;2.92;;;;;;;9.99;78.43;100884.69;5093393;28;20117;-65
2022/01/03 00:15:18;;;;;;;17.48;2.88;;;;;;;9.94;78.71;100902.84;5076889;28;20044;-64
2022/01/03 00:17:46;;;;;;;21.00;2.30;;;;;;;9.97;78.15;100889.31;5076597;28;20052;-65
2022/01/03 00:20:13;;;;;;;29.00;2.80;;;;;;;10.00;78.31;100891.66;5093377;28;20093;-64
2022/01/03 00:22:53;;;;;;;17.25;2.20;;;;;;;9.92;78.72;100907.44;5094352;28;21047;-65
2022/01/03 00:25:21;;;;;;;17.92;2.78;;;;;;;9.95;78.99;100901.84;5094258;28;20072;-64
2022/01/03 00:30:37;;;;;;;24.33;3.40;;;;;;;10.02;78.24;100905.56;5131050;27;20717;-65
2022/01/03 00:33:06;;;;;;;26.10;3.42;;;;;;;10.09;78.47;100901.38;5128950;27;20043;-65
2022/01/03 00:35:36;;;;;;;21.42;2.55;;;;;;;9.92;78.93;100905.63;5130733;27;20043;-65
2022/01/03 00:38:05;;;;;;;24.30;2.78;;;;;;;9.82;79.17;100911.94;5129663;27;20062;-65
2022/01/03 00:40:32;;;;;;;20.30;3.10;;;;;;;9.84;79.02;100905.53;5129569;28;20039;-65
2022/01/03 00:42:59;;;;;;;18.45;2.72;;;;;;;9.89;78.62;100931.59;5112510;28;20071;-65
2022/01/03 00:45:26;;;;;;;35.92;2.97;;;;;;;9.88;78.91;100920.16;5129237;28;20043;-65
2022/01/03 00:47:53;;;;;;;17.55;2.70;;;;;;;9.88;78.10;100921.97;5130831;27;20503;-65
2022/01/03 00:50:22;;;;;;;21.83;2.80;;;;;;;9.92;78.62;100921.53;5129433;28;20487;-65
2022/01/03 00:52:51;;;;;;;21.65;2.70;;;;;;;9.82;78.91;100933.13;5134770;27;20043;-65
2022/01/03 00:55:19;;;;;;;15.27;2.17;;;;;;;9.73;79.26;100927.75;5127220;27;20062;-65
2022/01/03 00:58:08;;;;;;;23.42;3.53;;;;;;;9.81;79.44;100929.66;5112837;28;20040;-65
2022/01/03 01:00:38;;;;;;;23.75;3.13;;;;;;;9.82;79.62;100931.31;5094358;28;20035;-65
2022/01/03 01:03:19;;;;;;;20.77;2.90;;;;;;;9.71;79.37;100942.09;5091785;28;20036;-65
2022/01/03 01:05:50;;;;;;;27.40;3.70;;;;;;;9.76;79.40;100934.56;5091958;28;20054;-65
2022/01/03 01:08:20;;;;;;;24.13;2.55;;;;;;;9.80;79.40;100936.78;5109758;28;20127;-65
2022/01/03 01:10:50;;;;;;;21.23;3.00;;;;;;;9.68;79.19;100929.13;5108499;28;20067;-65
2022/01/03 01:13:20;;;;;;;23.92;2.97;;;;;;;9.69;80.04;100933.47;5092253;28;20052;-65
2022/01/03 01:15:48;;;;;;;23.30;3.60;;;;;;;9.73;79.14;100933.03;5075322;28;20050;-65
2022/01/03 01:18:15;;;;;;;20.50;2.95;;;;;;;9.68;79.71;100942.38;5099712;28;20044;-65
2022/01/03 01:20:48;;;;;;;26.63;4.05;;;;;;;9.72;79.11;100941.94;5108493;28;20089;-65
2022/01/03 01:23:17;;;;;;;20.48;3.00;;;;;;;9.83;79.36;100948.06;5116229;27;20039;-65
2022/01/03 01:28:21;;;;;;;25.67;3.42;;;;;;;9.86;78.44;100950.41;5110572;27;20327;-65
2022/01/03 01:30:53;;;;;;;28.50;3.53;;;;;;;9.73;78.65;100951.59;5105749;28;20119;-65
2022/01/03 01:33:22;;;;;;;22.92;2.67;;;;;;;9.80;78.66;100954.47;5087401;28;20040;-65
2022/01/03 01:36:05;;;;;;;22.13;2.72;;;;;;;9.88;78.34;100965.22;5088668;28;20131;-66
2022/01/03 01:38:38;;;;;;;29.98;3.25;;;;;;;9.84;78.75;100953.22;5090173;28;20127;-65
2022/01/03 01:41:07;;;;;;;29.67;3.67;;;;;;;9.86;78.68;100963.66;5088762;28;20041;-65
2022/01/03 01:43:42;;;;;;;28.77;4.05;;;;;;;9.80;79.33;100967.72;5088897;28;20048;-65
2022/01/03 01:46:14;;;;;;;20.52;3.20;;;;;;;9.79;78.24;100974.03;5072453;28;20050;-65
2022/01/03 01:48:45;;;;;;;21.70;2.92;;;;;;;9.81;78.38;100974.72;5088592;28;20509;-65
2022/01/03 01:51:15;;;;;;;25.77;3.60;;;;;;;9.90;78.50;100973.84;5088638;28;20040;-65
2022/01/03 01:53:47;;;;;;;28.75;3.60;;;;;;;9.90;78.02;100973.00;5098841;28;20044;-65
2022/01/03 01:56:20;;;;;;;25.70;3.78;;;;;;;9.80;78.55;100973.03;5108655;28;20508;-65
2022/01/03 01:59:16;;;;;;;25.30;3.53;;;;;;;9.85;78.47;100969.97;5092076;28;20129;-65
2022/01/03 02:02:00;;;;;;;26.17;3.58;;;;;;;9.75;78.67;100970.81;5109483;28;20043;-65
2022/01/03 02:08:03;;;;;;;28.73;3.20;;;;;;;9.72;78.92;100979.03;5089950;28;20927;-64
2022/01/03 02:10:41;;;;;;;27.33;3.72;;;;;;;9.59;79.24;100971.41;5071553;28;20448;-66
2022/01/03 02:13:11;;;;;;;26.77;2.75;;;;;;;9.60;79.50;100982.81;5061054;28;20524;-66
2022/01/03 02:15:44;;;;;;;25.33;3.65;;;;;;;9.55;79.59;100969.16;5089654;28;20115;-65
2022/01/03 02:18:11;;;;;;;30.58;3.53;;;;;;;9.59;79.17;100976.69;5056006;28;20040;-65
2022/01/03 02:20:40;;;;;;;24.73;3.33;;;;;;;9.45;79.47;100981.59;5071844;28;20520;-65
2022/01/03 02:23:09;;;;;;;22.45;2.90;;;;;;;9.65;78.63;100985.06;5084066;28;20099;-65
2022/01/03 02:25:39;;;;;;;23.88;3.20;;;;;;;9.55;78.96;100988.56;5051569;28;20444;-65
2022/01/03 02:28:06;;;;;;;28.15;3.70;;;;;;;9.66;78.64;100982.28;5069279;28;20141;-64
2022/01/03 02:30:35;;;;;;;21.17;3.13;;;;;;;9.68;77.86;100979.44;5064708;28;20040;-65
2022/01/03 02:33:04;;;;;;;21.48;2.92;;;;;;;9.61;78.15;100979.22;5059614;28;20045;-65
2022/01/03 02:35:38;;;;;;;20.50;2.50;;;;;;;9.69;78.29;100984.63;5032752;28;20120;-65
2022/01/03 02:38:09;;;;;;;21.30;2.70;;;;;;;9.69;78.50;100973.19;5043187;28;20072;-65
2022/01/03 02:40:36;;;;;;;24.90;3.60;;;;;;;9.70;78.24;100973.06;5012410;28;20047;-64
2022/01/03 02:43:03;;;;;;;17.30;2.65;;;;;;;9.72;78.05;100972.91;5062471;28;20072;-64
2022/01/03 02:45:31;;;;;;;26.40;3.67;;;;;;;9.66;78.22;100961.09;5031754;28;20041;-64
2022/01/03 02:48:03;;;;;;;24.67;3.50;;;;;;;9.50;79.00;100964.31;5015600;28;20409;-64
2022/01/03 02:50:31;;;;;;;25.65;3.60;;;;;;;9.41;79.52;100965.97;5040933;28;20049;-65
2022/01/03 02:52:58;;;;;;;23.55;2.92;;;;;;;9.66;78.97;100961.09;5067376;28;20041;-64
2022/01/03 02:55:26;;;;;;;26.60;3.63;;;;;;;9.44;79.24;100958.72;5067144;28;20051;-64
2022/01/03 02:57:58;;;;;;;19.70;2.70;;;;;;;9.50;78.81;100964.31;5059775;28;20064;-64
2022/01/03 03:00:30;;;;;;;24.35;3.30;;;;;;;9.51;78.75;100963.31;5073871;28;20040;-64
2022/01/03 03:02:58;;;;;;;23.98;2.63;;;;;;;9.47;78.79;100969.88;5054459;28;20045;-64
2022/01/03 03:05:26;;;;;;;25.83;3.10;;;;;;;9.44;79.49;100967.53;5028089;28;20103;-64
2022/01/03 03:07:53;;;;;;;26.48;2.90;;;;;;;9.32;79.63;100973.94;5050939;28;20075;-65
2022/01/03 03:10:23;;;;;;;22.55;2.58;;;;;;;9.43;79.01;100967.66;5067316;28;20045;-64
2022/01/03 03:12:52;;;;;;;25.00;3.20;;;;;;;9.36;79.23;100965.56;5048856;28;20045;-64
2022/01/03 03:15:22;;;;;;;23.83;3.30;;;;;;;9.39;79.18;100969.75;4999429;28;20060;-65
2022/01/03 03:17:49;;;;;;;26.58;3.15;;;;;;;9.33;79.42;100972.94;5023163;28;20133;-64
2022/01/03 03:20:19;;;;;;;28.48;3.33;;;;;;;9.37;79.16;100972.53;4985255;28;20053;-64
2022/01/03 03:22:49;;;;;;;20.98;2.60;;;;;;;9.31;79.01;100961.66;5035165;28;20128;-65
2022/01/03 03:25:24;;;;;;;20.83;3.25;;;;;;;9.24;79.67;100974.66;5002016;28;20044;-64
2022/01/03 03:27:56;;;;;;;20.58;2.60;;;;;;;9.33;79.78;100965.88;5001716;28;20095;-65
2022/01/03 03:30:34;;;;;;;29.38;3.72;;;;;;;9.20;79.38;100974.09;5018289;28;20584;-64
2022/01/03 03:33:07;;;;;;;24.13;3.10;;;;;;;9.30;78.88;100976.72;5001675;28;20092;-65
2022/01/03 03:35:35;;;;;;;18.40;2.40;;;;;;;9.22;79.29;100971.28;5034709;28;20033;-65
2022/01/03 03:38:02;;;;;;;15.20;2.25;;;;;;;9.26;79.00;100975.34;5017445;28;20049;-65
2022/01/03 03:40:29;;;;;;;23.58;3.85;;;;;;;9.27;79.09;100970.88;5001214;28;20041;-64
2022/01/03 03:42:56;;;;;;;21.33;2.58;;;;;;;9.16;79.38;100966.56;5034932;28;20060;-64
2022/01/03 03:45:24;;;;;;;18.65;2.50;;;;;;;9.16;79.30;100980.63;4984633;28;20053;-65
2022/01/03 03:47:52;;;;;;;18.42;2.50;;;;;;;9.15;79.22;100976.31;5001319;28;20045;-65
2022/01/03 03:50:20;;;;;;;29.90;3.20;;;;;;;9.18;79.42;100983.97;5017297;28;20441;-64
2022/01/03 03:52:48;;;;;;;22.30;2.97;;;;;;;9.18;79.62;100972.53;5001112;28;20041;-64
2022/01/03 03:55:16;;;;;;;22.42;2.90;;;;;;;9.18;79.29;100980.47;5034684;28;20045;-65
2022/01/03 03:57:43;;;;;;;21.17;2.50;;;;;;;9.15;79.47;100983.41;4984820;28;20482;-65
2022/01/03 04:00:15;;;;;;;25.08;2.83;;;;;;;9.17;79.53;100978.81;5004071;28;20044;-64
2022/01/03 04:02:47;;;;;;;20.98;2.88;;;;;;;9.11;79.90;100974.06;5037702;28;20049;-65
2022/01/03 04:05:16;;;;;;;18.00;2.28;;;;;;;9.23;79.28;100976.44;5052144;28;20059;-64
2022/01/03 04:07:45;;;;;;;17.33;2.83;;;;;;;9.29;79.15;100976.84;5020005;28;20048;-64
2022/01/03 04:10:15;;;;;;;22.40;3.42;;;;;;;9.15;79.38;100973.66;5036530;28;20053;-64
2022/01/03 04:12:45;;;;;;;30.90;3.17;;;;;;;9.19;79.63;100968.94;5021544;28;20071;-65
2022/01/03 04:15:12;;;;;;;23.58;2.80;;;;;;;9.18;79.37;100967.25;5036708;28;20552;-65
2022/01/03 04:17:39;;;;;;;23.20;2.53;;;;;;;9.20;79.33;100973.22;5016772;28;20120;-65
2022/01/03 04:20:07;;;;;;;20.15;2.40;;;;;;;9.23;79.15;100968.50;5016415;28;20471;-64
2022/01/03 04:22:35;;;;;;;18.98;2.80;;;;;;;9.29;79.27;100966.28;5034046;28;20134;-64
2022/01/03 04:25:02;;;;;;;16.58;2.70;;;;;;;9.30;79.38;100970.59;5016267;28;20060;-64
2022/01/03 04:27:29;;;;;;;15.40;1.88;;;;;;;9.25;79.00;100972.81;5000071;28;20087;-64
2022/01/03 04:29:56;;;;;;;19.08;2.60;;;;;;;9.28;78.93;100973.38;5033193;28;20046;-65
2022/01/03 04:32:23;;;;;;;16.95;2.75;;;;;;;9.28;78.87;100978.69;5032248;28;20084;-64
2022/01/03 04:34:50;;;;;;;23.48;3.10;;;;;;;9.16;78.77;100979.78;4984166;28;20067;-64
2022/01/03 04:37:17;;;;;;;21.42;3.00;;;;;;;9.18;79.01;100969.91;5033657;28;20115;-64
2022/01/03 04:39:45;;;;;;;23.08;2.60;;;;;;;9.21;78.96;100975.75;5033840;28;20049;-65
2022/01/03 04:42:12;;;;;;;26.52;3.55;;;;;;;9.22;78.83;100961.56;5016304;28;20046;-64
2022/01/03 04:44:39;;;;;;;21.08;2.50;;;;;;;9.16;78.82;100954.16;5033749;28;20080;-64
2022/01/03 04:47:06;;;;;;;22.65;2.65;;;;;;;9.34;78.24;100954.28;4983895;28;20098;-64
2022/01/03 04:49:34;;;;;;;23.55;2.80;;;;;;;9.27;78.62;100949.69;5033816;28;20450;-65
2022/01/03 04:52:02;;;;;;;14.30;2.40;;;;;;;9.24;78.23;100950.81;5015935;28;20828;-65
2022/01/03 04:54:29;;;;;;;21.02;2.63;;;;;;;9.30;78.40;100949.44;4999676;28;20449;-64
2022/01/03 04:56:59;;;;;;;25.10;3.33;;;;;;;9.31;78.10;100953.72;5012592;28;20088;-64
2022/01/03 04:59:28;;;;;;;16.45;2.70;;;;;;;9.26;77.91;100961.25;5030694;28;20046;-65
2022/01/03 05:01:56;;;;;;;19.52;3.08;;;;;;;9.20;77.70;100962.66;5032878;28;20477;-65
2022/01/03 05:04:23;;;;;;;25.08;2.90;;;;;;;9.19;77.85;100959.16;5050825;28;20044;-64
2022/01/03 05:06:50;;;;;;;22.83;2.90;;;;;;;9.27;77.87;100955.00;5035307;28;20045;-65
2022/01/03 05:09:17;;;;;;;20.75;2.63;;;;;;;9.27;77.64;100955.00;5019236;28;20043;-64
2022/01/03 05:11:44;;;;;;;25.98;3.38;;;;;;;9.30;77.28;100973.25;5035987;28;20041;-64
2022/01/03 05:14:11;;;;;;;27.48;3.47;;;;;;;9.36;77.24;100952.31;5040556;28;20048;-64
2022/01/03 05:16:38;;;;;;;24.23;2.67;;;;;;;9.38;76.77;100955.66;5053509;28;20060;-65
2022/01/03 05:19:05;;;;;;;17.60;2.70;;;;;;;9.40;77.23;100955.53;5029586;28;20151;-65
2022/01/03 05:21:32;;;;;;;17.83;2.67;;;;;;;9.37;77.42;100955.84;4983422;28;20046;-64
2022/01/03 05:23:59;;;;;;;20.75;2.85;;;;;;;9.32;77.22;100961.53;5015093;28;20050;-64
2022/01/03 05:26:26;;;;;;;19.67;3.00;;;;;;;9.45;77.44;100955.13;5015503;28;20049;-65
2022/01/03 05:28:55;;;;;;;20.02;2.60;;;;;;;9.49;77.02;100956.50;5015400;28;20091;-65
2022/01/03 05:31:22;;;;;;;22.23;2.95;;;;;;;9.49;77.24;100956.50;4997293;28;20325;-64
2022/01/03 05:33:49;;;;;;;18.23;2.67;;;;;;;9.47;77.69;100950.50;5015464;28;20076;-65
2022/01/03 05:36:16;;;;;;;25.00;3.28;;;;;;;9.50;77.32;100951.06;4999305;28;20262;-65
2022/01/03 05:38:43;;;;;;;20.77;2.58;;;;;;;9.58;76.65;100945.88;5032512;28;20091;-64
2022/01/03 05:41:11;;;;;;;24.30;3.10;;;;;;;9.49;77.37;100943.25;5015287;28;20042;-64
2022/01/03 05:43:38;;;;;;;27.20;2.75;;;;;;;9.48;77.14;100946.88;5032754;28;20104;-65
2022/01/03 05:46:05;;;;;;;26.77;2.88;;;;;;;9.49;77.54;100943.25;5014773;28;20498;-64
2022/01/03 05:48:32;;;;;;;18.55;2.85;;;;;;;9.50;77.43;100935.19;5032732;28;20045;-65
2022/01/03 05:50:59;;;;;;;20.33;2.70;;;;;;;9.45;77.42;100934.75;5015247;28;20042;-65
2022/01/03 05:53:26;;;;;;;24.73;3.30;;;;;;;9.54;77.13;100935.72;5014924;28;20095;-64
2022/01/03 05:55:53;;;;;;;17.02;2.67;;;;;;;9.55;77.11;100926.78;4999146;28;20426;-65
2022/01/03 05:58:20;;;;;;;22.67;3.00;;;;;;;9.58;76.74;100930.00;4982823;28;20037;-64
2022/01/03 06:00:47;;;;;;;22.20;3.10;;;;;;;9.64;76.89;100917.16;5022524;28;20107;-65
2022/01/03 06:03:15;;;;;;;18.48;3.00;;;;;;;9.60;76.71;100929.84;5033374;28;20069;-65
2022/01/03 06:08:31;;;;;;;32.65;3.42;;;;;;;9.60;76.71;100913.97;5012449;28;20048;-65
2022/01/03 06:10:57;;;;;;;21.42;2.90;;;;;;;9.53;76.85;100915.50;4998407;28;20076;-65
2022/01/03 06:13:28;;;;;;;30.10;2.97;;;;;;;9.60;76.86;100911.31;5002935;28;20049;-65
2022/01/03 06:15:56;;;;;;;23.63;2.80;;;;;;;9.55;77.41;100905.59;4998453;28;20052;-65
2022/01/03 06:18:24;;;;;;;21.73;2.85;;;;;;;9.60;76.65;100911.31;5032525;28;20045;-64
2022/01/03 06:20:56;;;;;;;29.42;2.95;;;;;;;9.61;77.16;100905.03;5014818;28;20506;-65
2022/01/03 06:23:28;;;;;;;19.17;2.67;;;;;;;9.62;76.94;100904.03;5014138;28;20125;-64
2022/01/03 06:25:56;;;;;;;22.85;3.42;;;;;;;9.55;77.48;100902.94;5031696;28;20057;-64
2022/01/03 06:28:41;;;;;;;19.73;2.80;;;;;;;9.59;77.13;100910.47;5017568;28;20465;-65
2022/01/03 06:31:09;;;;;;;23.52;3.00;;;;;;;9.72;76.55;100911.97;5014489;28;20056;-64
2022/01/03 06:33:36;;;;;;;23.23;3.50;;;;;;;9.65;76.84;100905.59;5030724;28;20128;-65
2022/01/03 06:36:04;;;;;;;28.25;3.60;;;;;;;9.74;76.39;100908.19;5014182;28;20506;-64
2022/01/03 06:38:31;;;;;;;21.58;2.85;;;;;;;9.60;77.40;100914.81;4998367;28;20494;-65
2022/01/03 06:40:58;;;;;;;27.73;2.88;;;;;;;9.73;76.57;100906.56;5014690;28;20042;-65
2022/01/03 06:43:25;;;;;;;31.33;3.50;;;;;;;9.75;77.33;100909.03;5032143;28;20052;-64
2022/01/03 06:45:52;;;;;;;20.10;2.97;;;;;;;9.62;77.15;100904.03;4982279;28;20049;-65
2022/01/03 06:48:19;;;;;;;28.10;3.10;;;;;;;9.69;76.70;100904.31;5014467;28;20040;-65
2022/01/03 06:50:46;;;;;;;23.58;3.08;;;;;;;9.58;77.32;100905.31;5031904;28;20096;-64
2022/01/03 06:53:12;;;;;;;19.98;3.13;;;;;;;9.66;76.27;100899.28;5010554;28;20053;-64
2022/01/03 06:55:40;;;;;;;23.55;3.22;;;;;;;9.64;76.49;100902.13;5018457;28;20073;-64
2022/01/03 06:58:07;;;;;;;22.38;2.67;;;;;;;9.54;76.92;100902.13;5015830;28;20049;-64
2022/01/03 07:00:34;;;;;;;24.70;4.13;;;;;;;9.58;76.48;100903.50;5015031;28;20038;-64
2022/01/03 07:03:01;;;;;;;24.60;3.00;;;;;;;9.59;76.89;100914.94;5017363;28;20041;-64
2022/01/03 07:05:28;;;;;;;24.50;3.42;;;;;;;9.55;76.72;100919.69;5019971;28;20072;-64
2022/01/03 07:07:55;;;;;;;33.78;3.72;;;;;;;9.44;76.81;100913.72;5021166;28;20151;-65
2022/01/03 07:10:23;;;;;;;17.95;2.70;;;;;;;9.40;77.00;100923.75;5020800;28;20052;-65
2022/01/03 07:12:51;;;;;;;27.95;3.53;;;;;;;9.43;76.95;100906.75;5037609;28;20390;-65
2022/01/03 07:20:53;;;;;;;25.70;4.00;;;;;;;9.44;77.12;100903.13;5055330;28;20512;-65
2022/01/03 07:23:21;;;;;;;25.45;4.00;;;;;;;9.42;77.25;100903.25;5038557;28;20037;-65
2022/01/03 07:25:51;;;;;;;21.08;3.38;;;;;;;9.37;77.79;100897.59;5020911;28;20096;-65
2022/01/03 07:28:17;;;;;;;21.92;2.88;;;;;;;9.30;77.66;100885.88;5035105;28;20041;-65
2022/01/03 07:30:45;;;;;;;25.25;3.03;;;;;;;9.39;77.76;100890.31;5016099;28;20053;-65
2022/01/03 07:33:12;;;;;;;29.27;3.67;;;;;;;9.44;77.50;100890.75;5035087;28;20045;-65
2022/01/03 07:35:38;;;;;;;24.95;3.20;;;;;;;9.40;77.49;100897.28;5017482;28;20144;-65
2022/01/03 07:38:05;;;;;;;18.42;3.08;;;;;;;9.43;77.47;100896.19;5017381;28;20033;-65
2022/01/03 07:40:32;;;;;;;20.23;3.30;;;;;;;9.39;77.75;100892.97;5017034;28;20037;-65
2022/01/03 07:43:00;;;;;;;25.38;3.38;;;;;;;9.35;77.97;100903.00;5017391;28;20052;-65
2022/01/03 07:45:27;;;;;;;27.95;3.50;;;;;;;9.33;78.01;100902.31;5034666;28;20041;-65
2022/01/03 07:47:54;;;;;;;36.65;4.05;;;;;;;9.40;78.08;100899.91;5031635;28;20449;-65
2022/01/03 07:50:20;;;;;;;25.67;3.35;;;;;;;9.36;78.14;100898.53;5017227;28;20486;-65
2022/01/03 07:52:47;;;;;;;21.17;2.88;;;;;;;9.35;78.71;100897.72;5017155;28;20050;-65
2022/01/03 07:55:15;;;;;;;30.27;4.60;;;;;;;9.27;78.56;100899.41;5016581;28;20037;-65
2022/01/03 07:57:42;;;;;;;27.20;3.80;;;;;;;9.28;78.98;100901.91;5000942;28;20034;-65
2022/01/03 08:00:14;;;;;;;25.50;3.45;;;;;;;9.37;78.51;100908.16;5019635;28;20512;-65
2022/01/03 08:02:41;;;;;;;16.60;3.17;;;;;;;9.34;78.71;100905.81;5019489;28;20077;-66
2022/01/03 08:05:10;;;;;;;29.08;3.22;;;;;;;9.32;79.00;100903.28;5033408;28;20052;-66
2022/01/03 08:07:37;;;;;;;24.95;3.45;;;;;;;9.45;78.18;100915.41;5036583;28;20037;-65
2022/01/03 08:10:07;;;;;;;29.55;3.67;;;;;;;9.43;78.18;100909.41;5036537;28;20053;-65
2022/01/03 08:12:34;;;;;;;26.00;3.40;;;;;;;9.53;77.74;100921.66;5007976;28;20394;-65
2022/01/03 08:15:01;;;;;;;31.55;3.72;;;;;;;9.46;77.95;100912.63;5036189;28;20444;-65
2022/01/03 08:17:27;;;;;;;23.23;3.03;;;;;;;9.50;78.46;100923.75;5036833;28;20051;-65
2022/01/03 08:19:54;;;;;;;22.75;3.92;;;;;;;9.60;77.89;100920.09;5020059;28;20041;-65
2022/01/03 08:22:21;;;;;;;29.65;3.50;;;;;;;9.56;78.24;100907.28;5036189;28;20128;-65
2022/01/03 08:24:47;;;;;;;29.40;3.28;;;;;;;9.60;78.09;100911.31;5053954;28;20516;-65
2022/01/03 08:27:15;;;;;;;22.65;3.78;;;;;;;9.59;77.79;100907.00;5036146;28;20086;-66
2022/01/03 08:29:41;;;;;;;26.30;3.95;;;;;;;9.60;78.25;100924.56;5036312;28;20052;-65
2022/01/03 08:32:08;;;;;;;19.90;3.20;;;;;;;9.54;78.68;100915.38;5052228;28;20068;-65
2022/01/03 08:34:35;;;;;;;29.27;4.57;;;;;;;9.49;79.43;100914.13;5053865;28;20045;-65
2022/01/03 08:37:03;;;;;;;28.15;4.05;;;;;;;9.61;78.80;100910.34;5053477;28;20132;-65
2022/01/03 08:39:30;;;;;;;26.83;3.90;;;;;;;9.61;79.33;100910.34;5019896;28;20071;-65
2022/01/03 08:41:57;;;;;;;25.20;3.38;;;;;;;9.60;79.69;100916.59;5003242;28;20413;-65
2022/01/03 08:44:23;;;;;;;34.67;3.65;;;;;;;9.73;79.83;100911.84;5035987;28;20355;-65
2022/01/03 08:46:51;;;;;;;26.67;4.45;;;;;;;9.61;80.35;100916.47;5019594;28;20120;-65
2022/01/03 08:49:18;;;;;;;23.15;3.17;;;;;;;9.57;81.64;100916.91;5035713;28;20080;-65
2022/01/03 08:51:45;;;;;;;30.42;4.30;;;;;;;9.66;80.92;100901.94;5036124;28;20140;-65
2022/01/03 08:54:11;;;;;;;21.48;3.80;;;;;;;9.69;82.11;100899.03;5035620;28;20094;-65
2022/01/03 08:56:39;;;;;;;23.20;3.30;;;;;;;9.65;82.20;100895.81;5035710;28;20049;-65
2022/01/03 08:59:06;;;;;;;28.20;4.13;;;;;;;9.69;81.57;100891.06;5032501;28;20490;-65
2022/01/03 09:01:33;;;;;;;21.48;3.72;;;;;;;9.68;81.25;100898.19;5029990;28;20041;-65
2022/01/03 09:04:00;;;;;;;26.15;3.58;;;;;;;9.69;80.32;100896.38;5036087;28;20135;-65
2022/01/03 09:06:27;;;;;;;18.65;3.50;;;;;;;9.65;81.08;100908.25;5038214;28;20048;-65
2022/01/03 09:08:54;;;;;;;26.85;4.03;;;;;;;9.67;80.02;100899.16;5044255;28;20037;-65
2022/01/03 09:11:22;;;;;;;24.77;3.53;;;;;;;9.68;80.12;100900.84;4987079;28;20053;-65
2022/01/03 09:13:48;;;;;;;19.17;3.28;;;;;;;9.69;79.25;100899.03;5035327;28;20052;-65
2022/01/03 09:16:15;;;;;;;23.52;3.58;;;;;;;9.77;79.17;100888.56;5018394;28;20049;-65
2022/01/03 09:18:42;;;;;;;21.25;3.20;;;;;;;9.77;78.64;100894.69;5018817;28;20131;-65
2022/01/03 09:21:10;;;;;;;21.38;3.08;;;;;;;9.84;77.76;100880.84;5035440;28;20053;-65
2022/01/03 09:23:41;;;;;;;17.52;3.13;;;;;;;9.92;78.18;100887.06;5035002;28;20045;-65
2022/01/03 09:28:57;;;;;;;20.65;3.25;;;;;;;10.12;77.02;100894.94;5037780;28;20557;-65
2022/01/03 09:31:30;;;;;;;22.95;3.72;;;;;;;10.22;76.09;100902.84;5052991;28;20037;-64
2022/01/03 09:34:00;;;;;;;23.00;3.42;;;;;;;10.25;75.68;100889.31;5052483;28;20045;-64
2022/01/03 09:36:28;;;;;;;29.55;3.70;;;;;;;10.24;75.60;100885.81;5055412;28;20048;-64
2022/01/03 09:38:55;;;;;;;22.23;2.88;;;;;;;10.25;74.69;100898.06;5052807;28;20111;-64
2022/01/03 09:41:25;;;;;;;18.92;2.72;;;;;;;10.39;73.96;100894.13;5052398;28;20052;-64
2022/01/03 09:43:56;;;;;;;25.25;3.40;;;;;;;10.45;74.13;100898.00;5002826;28;20110;-64
2022/01/03 09:46:31;;;;;;;17.88;3.28;;;;;;;10.56;73.71;100889.81;5052389;28;20037;-64
2022/01/03 09:48:58;;;;;;;17.83;2.80;;;;;;;10.50;73.02;100893.91;5052551;28;20140;-64
2022/01/03 09:51:31;;;;;;;18.92;2.75;;;;;;;10.59;72.92;100888.69;5018731;28;20044;-64
2022/01/03 09:54:08;;;;;;;14.27;3.03;;;;;;;10.52;73.39;100891.13;5020751;28;20048;-64
2022/01/03 09:56:37;;;;;;;20.38;2.83;;;;;;;10.57;73.29;100892.34;5038285;28;20044;-64
2022/01/03 09:59:05;;;;;;;22.40;2.95;;;;;;;10.52;73.59;100896.44;5072596;28;20036;-65
2022/01/03 10:01:34;;;;;;;23.67;3.40;;;;;;;10.57;73.52;100895.00;5023876;28;20061;-64
2022/01/03 10:04:01;;;;;;;24.55;3.13;;;;;;;10.62;72.70;100891.03;5032886;28;20045;-65
2022/01/03 10:06:28;;;;;;;23.25;3.30;;;;;;;10.54;72.83;100897.94;5017732;28;20178;-64
2022/01/03 10:08:56;;;;;;;20.27;2.95;;;;;;;10.60;73.40;100890.34;5001681;28;20045;-64
2022/01/03 10:11:24;;;;;;;22.23;3.08;;;;;;;10.60;72.62;100874.44;5034641;28;20091;-64
2022/01/03 10:13:51;;;;;;;25.20;4.00;;;;;;;10.49;72.90;100878.97;5018427;28;20045;-65
2022/01/03 10:16:18;;;;;;;20.55;3.35;;;;;;;10.54;72.80;100882.00;5034421;28;20063;-64
2022/01/03 10:18:55;;;;;;;21.13;3.15;;;;;;;10.62;72.63;100891.03;5051974;28;20449;-64
2022/01/03 10:21:40;;;;;;;23.08;3.55;;;;;;;10.68;72.88;100869.22;5034547;28;20045;-64
2022/01/03 10:24:09;;;;;;;27.52;3.45;;;;;;;10.70;72.65;100877.88;5017804;28;20045;-64
2022/01/03 10:26:38;;;;;;;29.40;3.80;;;;;;;10.71;72.74;100887.47;5034150;28;20041;-64
2022/01/03 10:29:14;;;;;;;24.70;4.18;;;;;;;10.84;72.85;100868.53;5055629;28;20041;-64
2022/01/03 10:31:43;;;;;;;21.83;2.95;;;;;;;10.84;72.00;100876.47;5047841;28;20136;-64
2022/01/03 10:34:13;;;;;;;20.42;3.25;;;;;;;10.84;72.22;100856.09;5032030;28;20449;-64
2022/01/03 10:36:42;;;;;;;26.63;3.80;;;;;;;10.72;72.31;100857.31;5031964;28;20049;-64
2022/01/03 10:39:28;;;;;;;22.05;3.50;;;;;;;10.63;72.58;100851.09;5010148;28;20057;-64
2022/01/03 10:42:14;;;;;;;28.35;3.67;;;;;;;10.71;72.66;100853.84;5021831;28;20072;-64
2022/01/03 10:44:42;;;;;;;27.63;3.67;;;;;;;10.60;73.21;100854.03;5038060;28;20041;-65
2022/01/03 10:47:13;;;;;;;17.52;3.40;;;;;;;10.61;73.67;100846.94;5047538;28;20109;-64
2022/01/03 10:49:42;;;;;;;26.02;3.33;;;;;;;10.75;72.77;100843.72;5075922;28;20048;-64
2022/01/03 10:52:18;;;;;;;27.13;3.70;;;;;;;10.64;73.08;100859.88;5038830;28;20405;-64
2022/01/03 10:55:07;;;;;;;19.30;3.53;;;;;;;10.71;73.66;100842.38;5037716;28;20051;-64
2022/01/03 10:57:55;;;;;;;24.10;3.65;;;;;;;10.87;72.10;100839.84;5040986;28;20051;-64
2022/01/03 11:00:28;;;;;;;20.83;3.10;;;;;;;10.89;72.08;100832.56;5035206;28;20114;-64
2022/01/03 11:06:02;;;;;;;22.40;2.75;;;;;;;11.02;71.86;100826.88;5105544;27;20195;-66
2022/01/03 11:11:33;;;;;;;25.45;3.67;;;;;;;11.13;72.23;100823.13;5089398;28;20059;-66
2022/01/03 11:14:00;;;;;;;23.27;3.38;;;;;;;10.95;72.73;100826.66;5072114;28;20119;-66
2022/01/03 11:16:32;;;;;;;24.00;3.95;;;;;;;11.20;71.57;100821.50;5071591;28;20090;-66
2022/01/03 11:18:59;;;;;;;;;;;;;;;11.34;70.94;100828.09;5052859;28;20041;-63
2022/01/03 11:21:26;;;;;;;21.27;2.80;;;;;;;11.34;70.70;100830.75;5068057;28;19920;-65
2022/01/03 11:26:46;;;;;;;19.20;3.13;;;;;;;11.26;71.53;100810.28;5109864;27;20148;-65
2022/01/03 11:29:14;;;;;;;20.65;3.03;;;;;;;11.30;71.06;100816.13;5040228;28;20113;-63
2022/01/03 11:31:41;;;;;;;23.10;3.13;;;;;;;11.49;71.24;100802.59;5086362;28;20485;-63
2022/01/03 11:34:10;;;;;;;14.25;3.15;;;;;;;11.50;70.59;100811.41;5052255;28;20539;-64
2022/01/03 11:36:58;;;;;;;24.92;3.45;;;;;;;11.55;70.04;100787.88;5062459;28;20044;-64
2022/01/03 11:39:28;;;;;;;22.30;3.25;;;;;;;12.01;68.09;100776.91;5069183;28;20070;-66
2022/01/03 11:41:55;;;;;;;25.13;4.28;;;;;;;11.79;69.22;100770.31;5080571;28;20037;-64
2022/01/03 11:44:23;;;;;;;14.75;2.75;;;;;;;11.65;69.75;100764.63;5062981;28;20114;-65
2022/01/03 11:46:49;;;;;;;15.30;3.22;;;;;;;11.94;68.92;100774.06;5088616;28;20040;-64
2022/01/03 11:49:19;;;;;;;24.75;3.90;;;;;;;11.92;69.19;100770.75;5070377;28;20050;-65
2022/01/03 11:51:46;;;;;;;18.98;3.28;;;;;;;11.93;68.61;100776.88;5065310;28;20035;-64
2022/01/03 11:54:14;;;;;;;14.65;2.83;;;;;;;11.68;69.86;100763.50;5081875;28;20090;-64
2022/01/03 11:56:46;;;;;;;15.02;2.20;;;;;;;11.76;69.17;100766.16;5089434;28;20044;-64
2022/01/03 12:05:01;;;;;;;20.70;3.13;;;;;;;11.27;71.10;100771.28;5063473;28;20040;-64
2022/01/03 12:07:28;;;;;;;12.80;2.60;;;;;;;10.99;71.99;100770.59;5100805;28;20047;-64